createdAt,value
2019-03-04T00:00:09.555Z,92.60
2019-03-04T00:02:38.008Z,92.60
2019-03-04T00:05:06.890Z,92.80
2019-03-04T00:07:35.591Z,92.70
2019-03-04T00:10:04.874Z,93.00
2019-03-04T00:12:34.078Z,92.90
2019-03-04T00:15:02.562Z,92.90
2019-03-04T00:17:30.979Z,92.50
2019-03-04T00:19:59.517Z,92.40
2019-03-04T00:22:28.022Z,92.50
2019-03-04T00:24:57.074Z,92.40
2019-03-04T00:27:25.495Z,92.40
2019-03-04T00:29:53.999Z,92.30
2019-03-04T00:32:22.515Z,92.30
2019-03-04T00:34:50.922Z,92.30
2019-03-04T00:37:19.329Z,92.20
2019-03-04T00:39:47.705Z,91.90
2019-03-04T00:42:16.210Z,92.10
2019-03-04T00:44:44.690Z,92.30
2019-03-04T00:47:13.102Z,92.20
2019-03-04T00:49:41.790Z,92.30
2019-03-04T00:52:10.244Z,92.30
2019-03-04T00:54:38.713Z,92.30
2019-03-04T00:57:07.162Z,92.30
2019-03-04T00:59:35.608Z,92.40
2019-03-04T01:02:03.954Z,92.30
2019-03-04T01:04:32.533Z,92.10
2019-03-04T01:07:00.901Z,92.20
2019-03-04T01:09:29.664Z,92.00
2019-03-04T01:11:59.815Z,92.00
2019-03-04T01:14:29.630Z,91.90
2019-03-04T01:16:57.981Z,91.90
2019-03-04T01:19:26.443Z,92.00
2019-03-04T01:21:54.810Z,91.80
2019-03-04T01:24:23.258Z,91.60
2019-03-04T01:26:51.698Z,91.80
2019-03-04T01:29:20.079Z,91.80
2019-03-04T01:31:48.495Z,91.80
2019-03-04T01:34:16.887Z,91.60
2019-03-04T01:36:46.940Z,91.80
2019-03-04T01:39:15.273Z,91.70
2019-03-04T01:41:43.696Z,91.70
2019-03-04T01:44:12.077Z,91.40
2019-03-04T01:46:40.495Z,91.60
2019-03-04T01:49:08.881Z,91.60
2019-03-04T01:51:37.275Z,91.60
2019-03-04T01:54:05.766Z,91.50
2019-03-04T01:56:34.215Z,91.30
2019-03-04T01:59:02.611Z,91.40
2019-03-04T02:01:31.169Z,91.30
2019-03-04T02:03:59.559Z,91.50
2019-03-04T02:06:27.995Z,91.30
2019-03-04T02:08:56.387Z,91.40
2019-03-04T02:11:25.055Z,91.40
2019-03-04T02:13:53.457Z,91.60
2019-03-04T02:16:21.863Z,91.80
2019-03-04T02:18:50.285Z,91.80
2019-03-04T02:21:18.729Z,92.00
2019-03-04T02:23:47.187Z,92.10
2019-03-04T02:26:17.090Z,92.00
2019-03-04T02:28:45.621Z,92.20
2019-03-04T02:31:14.022Z,92.10
2019-03-04T02:33:42.433Z,92.20
2019-03-04T02:36:10.838Z,92.10
2019-03-04T02:38:39.442Z,92.10
2019-03-04T02:41:07.857Z,91.90
2019-03-04T02:43:36.226Z,92.00
2019-03-04T02:46:04.767Z,91.80
2019-03-04T02:48:33.204Z,92.10
2019-03-04T02:51:01.582Z,91.90
2019-03-04T02:53:29.986Z,91.80
2019-03-04T02:55:58.477Z,91.80
2019-03-04T02:58:26.889Z,91.80
2019-03-04T03:00:55.330Z,92.20
2019-03-04T03:03:23.972Z,92.00
2019-03-04T03:05:52.351Z,92.20
2019-03-04T03:08:21.005Z,92.20
2019-03-04T03:10:49.603Z,92.60
2019-03-04T03:13:18.342Z,92.20
2019-03-04T03:15:46.721Z,92.40
2019-03-04T03:18:15.158Z,92.50
2019-03-04T03:20:43.557Z,92.80
2019-03-04T03:23:11.976Z,93.00
2019-03-04T03:25:40.412Z,92.80
2019-03-04T03:28:08.905Z,92.70
2019-03-04T03:30:37.300Z,92.80
2019-03-04T03:33:05.752Z,92.80
2019-03-04T03:35:34.160Z,92.90
2019-03-04T03:38:02.538Z,92.80
2019-03-04T03:40:31.095Z,92.90
2019-03-04T03:42:59.467Z,92.80
2019-03-04T03:45:27.883Z,92.70
2019-03-04T03:47:56.324Z,92.70
2019-03-04T03:50:24.743Z,92.60
2019-03-04T03:52:53.119Z,92.60
2019-03-04T03:55:21.552Z,92.50
2019-03-04T03:57:49.928Z,92.70
2019-03-04T04:00:22.157Z,92.50
2019-03-04T04:02:50.584Z,92.40
2019-03-04T04:05:18.954Z,92.60
2019-03-04T04:07:47.438Z,92.80
2019-03-04T04:10:19.646Z,92.70
2019-03-04T04:12:48.040Z,92.70
2019-03-04T04:15:19.203Z,92.80
2019-03-04T04:17:47.669Z,92.80
2019-03-04T04:20:16.080Z,92.60
2019-03-04T04:22:44.475Z,92.80
2019-03-04T04:25:12.954Z,92.70
2019-03-04T04:27:42.713Z,92.70
2019-03-04T04:30:17.670Z,92.60
2019-03-04T04:32:46.145Z,92.30
2019-03-04T04:35:14.535Z,92.30
2019-03-04T04:37:43.003Z,92.10
2019-03-04T04:40:15.193Z,92.20
2019-03-04T04:42:43.644Z,92.40
2019-03-04T04:45:13.998Z,92.50
2019-03-04T04:47:45.830Z,92.40
2019-03-04T04:50:26.005Z,92.20
2019-03-04T04:52:54.672Z,92.20
2019-03-04T04:55:23.095Z,92.30
2019-03-04T04:57:51.562Z,92.30
2019-03-04T05:00:21.733Z,92.20
2019-03-04T05:02:50.062Z,92.50
2019-03-04T05:05:18.588Z,92.40
2019-03-04T05:07:47.129Z,92.50
2019-03-04T05:10:20.089Z,92.40
2019-03-04T05:12:48.605Z,92.50
2019-03-04T05:15:17.416Z,92.50
2019-03-04T05:17:46.642Z,92.60
2019-03-04T05:20:20.684Z,92.70
2019-03-04T05:22:49.209Z,92.90
2019-03-04T05:25:17.614Z,92.90
2019-03-04T05:27:46.027Z,92.80
2019-03-04T05:30:17.540Z,92.90
2019-03-04T05:32:46.082Z,92.90
2019-03-04T05:35:14.518Z,92.80
2019-03-04T05:37:42.912Z,92.70
2019-03-04T05:40:19.055Z,92.90
2019-03-04T05:42:47.430Z,92.70
2019-03-04T05:45:17.332Z,92.90
2019-03-04T05:47:46.608Z,92.90
2019-03-04T05:50:17.353Z,93.00
2019-03-04T05:52:45.725Z,92.80
2019-03-04T05:55:15.413Z,92.60
2019-03-04T05:57:43.815Z,92.50
2019-03-04T06:00:21.539Z,92.40
2019-03-04T06:02:51.878Z,92.30
2019-03-04T06:05:20.376Z,92.30
2019-03-04T06:07:56.279Z,92.10
2019-03-04T06:10:24.697Z,92.40
2019-03-04T06:12:53.182Z,92.20
2019-03-04T06:15:22.065Z,92.00
2019-03-04T06:17:50.687Z,92.00
2019-03-04T06:20:20.079Z,91.90
2019-03-04T06:22:48.667Z,91.90
2019-03-04T06:25:19.921Z,91.80
2019-03-04T06:27:49.261Z,91.70
2019-03-04T06:30:20.480Z,91.70
2019-03-04T06:32:48.938Z,91.80
2019-03-04T06:35:17.281Z,91.60
2019-03-04T06:37:45.706Z,91.30
2019-03-04T06:40:15.963Z,91.30
2019-03-04T06:42:44.339Z,91.30
2019-03-04T06:45:14.942Z,91.00
2019-03-04T06:47:43.488Z,90.90
2019-03-04T06:50:46.359Z,91.10
2019-03-04T06:53:20.639Z,90.90
2019-03-04T06:56:12.010Z,90.80
2019-03-04T06:59:01.789Z,90.70
2019-03-04T07:01:33.480Z,90.40
2019-03-04T07:04:05.114Z,90.30
2019-03-04T07:06:33.497Z,90.40
2019-03-04T07:09:07.525Z,90.80
2019-03-04T07:11:35.958Z,91.20
2019-03-04T07:14:04.722Z,90.90
2019-03-04T07:16:33.171Z,90.30
2019-03-04T07:19:02.959Z,89.90
2019-03-04T07:21:31.553Z,90.20
2019-03-04T07:24:00.044Z,90.20
2019-03-04T07:26:28.801Z,90.00
2019-03-04T07:28:57.182Z,90.40
2019-03-04T07:31:25.919Z,89.90
2019-03-04T07:33:54.222Z,89.70
2019-03-04T07:36:22.861Z,89.80
2019-03-04T07:38:56.838Z,89.70
2019-03-04T07:41:26.155Z,89.70
2019-03-04T07:43:54.584Z,90.00
2019-03-04T07:46:23.082Z,90.10
2019-03-04T07:48:54.409Z,89.80
2019-03-04T07:51:22.966Z,89.50
2019-03-04T07:53:52.762Z,89.50
2019-03-04T07:56:21.133Z,88.50
2019-03-04T07:58:49.598Z,88.40
2019-03-04T08:01:18.185Z,88.60
2019-03-04T08:03:46.663Z,88.10
2019-03-04T08:06:15.314Z,88.10
2019-03-04T08:09:04.742Z,87.50
2019-03-04T08:12:05.310Z,87.50
2019-03-04T08:14:33.790Z,88.40
2019-03-04T08:17:02.243Z,87.70
2019-03-04T08:19:30.837Z,88.00
2019-03-04T08:21:59.464Z,88.10
2019-03-04T08:24:28.377Z,87.70
2019-03-04T08:26:59.684Z,87.10
2019-03-04T08:29:28.252Z,87.10
2019-03-04T08:31:56.726Z,87.50
2019-03-04T08:34:30.945Z,86.80
2019-03-04T08:36:55.552Z,87.50
2019-03-04T08:39:24.071Z,87.20
2019-03-04T08:41:52.626Z,86.30
2019-03-04T08:44:21.089Z,85.90
2019-03-04T08:46:49.734Z,86.00
2019-03-04T08:49:18.166Z,86.60
2019-03-04T08:51:46.812Z,85.50
2019-03-04T08:54:15.258Z,86.00
2019-03-04T08:56:45.539Z,85.90
2019-03-04T08:59:13.993Z,86.60
2019-03-04T09:01:42.723Z,85.40
2019-03-04T09:04:11.153Z,86.10
2019-03-04T09:06:39.827Z,86.90
2019-03-04T09:09:08.420Z,87.30
2019-03-04T09:11:36.957Z,87.10
2019-03-04T09:14:05.651Z,86.90
2019-03-04T09:16:34.156Z,86.00
2019-03-04T09:19:02.932Z,85.90
2019-03-04T09:21:31.513Z,86.10
2019-03-04T09:24:00.052Z,85.60
2019-03-04T09:26:28.706Z,86.90
2019-03-04T09:28:57.332Z,86.10
2019-03-04T09:31:27.434Z,86.30
2019-03-04T09:33:56.039Z,86.70
2019-03-04T09:36:24.583Z,85.80
2019-03-04T09:38:53.047Z,85.30
2019-03-04T09:41:21.473Z,85.40
2019-03-04T09:43:49.885Z,86.00
2019-03-04T09:46:18.390Z,85.30
2019-03-04T09:48:46.869Z,85.50
2019-03-04T09:51:24.015Z,85.40
2019-03-04T09:53:45.586Z,84.90
2019-03-04T09:56:14.577Z,85.90
2019-03-04T09:58:45.201Z,85.30
2019-03-04T10:01:25.899Z,85.00
2019-03-04T10:04:00.329Z,85.00
2019-03-04T10:06:34.650Z,85.00
2019-03-04T10:09:28.681Z,84.80
2019-03-04T10:12:12.360Z,84.90
2019-03-04T10:14:46.793Z,84.50
2019-03-04T10:17:30.410Z,84.90
2019-03-04T10:20:17.216Z,85.30
2019-03-04T10:23:22.315Z,85.20
2019-03-04T10:26:05.751Z,83.70
2019-03-04T10:28:58.713Z,82.50
2019-03-04T10:31:39.350Z,82.50
2019-03-04T10:34:26.082Z,83.10
2019-03-04T10:37:07.255Z,82.30
2019-03-04T10:39:41.842Z,81.10
2019-03-04T10:42:36.545Z,80.50
2019-03-04T10:45:20.347Z,80.60
2019-03-04T10:47:48.753Z,78.80
2019-03-04T10:50:17.315Z,78.50
2019-03-04T10:52:45.775Z,78.10
2019-03-04T10:55:14.418Z,77.90
2019-03-04T10:57:43.161Z,78.30
2019-03-04T11:00:19.635Z,77.50
2019-03-04T11:02:48.255Z,72.80
2019-03-04T11:05:16.929Z,70.60
2019-03-04T11:07:45.859Z,68.80
2019-03-04T11:10:14.288Z,69.70
2019-03-04T11:12:45.328Z,69.90
2019-03-04T11:15:22.761Z,71.80
2019-03-04T11:17:54.565Z,73.10
2019-03-04T11:20:23.303Z,74.20
2019-03-04T11:22:52.226Z,74.40
2019-03-04T11:25:20.746Z,73.50
2019-03-04T11:27:50.770Z,73.10
2019-03-04T11:30:25.574Z,72.50
2019-03-04T11:32:54.127Z,71.90
2019-03-04T11:35:22.751Z,70.30
2019-03-04T11:37:51.493Z,71.30
2019-03-04T11:40:35.829Z,68.50
2019-03-04T11:43:04.643Z,69.50
2019-03-04T11:45:33.242Z,71.70
2019-03-04T11:48:01.923Z,72.20
2019-03-04T11:50:30.653Z,72.80
2019-03-04T11:52:59.063Z,74.30
2019-03-04T11:55:32.726Z,74.00
2019-03-04T11:58:01.327Z,75.00
2019-03-04T12:00:32.583Z,76.80
2019-03-04T12:03:01.243Z,76.30
2019-03-04T12:05:29.789Z,77.60
2019-03-04T12:07:58.319Z,77.10
2019-03-04T12:10:27.016Z,77.80
2019-03-04T12:12:55.797Z,76.70
2019-03-04T12:15:24.596Z,75.70
2019-03-04T12:17:52.954Z,75.70
2019-03-04T12:20:21.482Z,74.50
2019-03-04T12:22:50.092Z,72.10
2019-03-04T12:25:20.629Z,72.30
2019-03-04T12:27:49.362Z,72.00
2019-03-04T12:30:19.830Z,72.80
2019-03-04T12:32:48.430Z,73.40
2019-03-04T12:35:21.398Z,73.60
2019-03-04T12:37:50.015Z,72.60
2019-03-04T12:40:20.269Z,72.60
2019-03-04T12:42:48.893Z,73.40
2019-03-04T12:45:19.728Z,73.70
2019-03-04T12:47:48.246Z,75.00
2019-03-04T12:50:29.217Z,77.20
2019-03-04T12:52:58.758Z,78.20
2019-03-04T12:55:28.464Z,78.80
2019-03-04T12:57:57.028Z,78.70
2019-03-04T13:00:27.398Z,79.80
2019-03-04T13:02:58.199Z,80.90
2019-03-04T13:05:27.015Z,81.60
2019-03-04T13:07:55.533Z,80.90
2019-03-04T13:10:24.012Z,81.00
2019-03-04T13:12:54.200Z,80.80
2019-03-04T13:15:31.328Z,82.30
2019-03-04T13:17:59.904Z,82.20
2019-03-04T13:20:31.428Z,83.30
2019-03-04T13:22:59.879Z,83.70
2019-03-04T13:25:28.228Z,83.00
2019-03-04T13:27:56.690Z,84.60
2019-03-04T13:30:27.575Z,85.00
2019-03-04T13:32:56.595Z,86.10
2019-03-04T13:35:30.936Z,87.40
2019-03-04T13:37:59.438Z,87.50
2019-03-04T13:40:29.983Z,87.50
2019-03-04T13:42:58.458Z,89.00
2019-03-04T13:45:28.142Z,88.20
2019-03-04T13:47:56.668Z,87.80
2019-03-04T13:50:30.054Z,87.10
2019-03-04T13:52:58.669Z,87.20
2019-03-04T13:55:27.622Z,87.30
2019-03-04T13:57:56.289Z,87.30
2019-03-04T14:00:27.569Z,87.60
2019-03-04T14:02:56.172Z,86.70
2019-03-04T14:05:24.747Z,87.10
2019-03-04T14:07:53.135Z,88.00
2019-03-04T14:10:26.044Z,88.40
2019-03-04T14:12:54.530Z,88.40
2019-03-04T14:15:26.477Z,88.80
2019-03-04T14:17:54.879Z,89.80
2019-03-04T14:20:23.338Z,90.30
2019-03-04T14:22:57.714Z,90.40
2019-03-04T14:25:21.793Z,91.10
2019-03-04T14:27:50.284Z,91.40
2019-03-04T14:30:22.177Z,91.70
2019-03-04T14:32:50.633Z,91.90
2019-03-04T14:35:19.129Z,92.10
2019-03-04T14:37:47.541Z,92.30
2019-03-04T14:40:20.354Z,92.30
2019-03-04T14:42:48.101Z,92.50
2019-03-04T14:45:22.253Z,92.50
2019-03-04T14:47:50.641Z,92.90
2019-03-04T14:50:20.314Z,92.70
2019-03-04T14:52:48.717Z,92.80
2019-03-04T14:55:21.960Z,92.50
2019-03-04T14:57:50.356Z,92.70
2019-03-04T15:00:44.423Z,93.00
2019-03-04T15:03:21.035Z,92.90
2019-03-04T15:05:42.928Z,92.90
2019-03-04T15:08:11.383Z,93.00
2019-03-04T15:10:39.789Z,93.10
2019-03-04T15:13:09.819Z,93.20
2019-03-04T15:15:39.893Z,93.10
2019-03-04T15:18:08.606Z,93.10
2019-03-04T15:20:37.031Z,93.30
2019-03-04T15:23:05.405Z,93.40
2019-03-04T15:25:41.496Z,93.40
2019-03-04T15:28:20.300Z,93.40
2019-03-04T15:30:51.991Z,93.40
2019-03-04T15:33:20.517Z,93.50
2019-03-04T15:35:49.295Z,93.50
2019-03-04T15:38:17.991Z,93.70
2019-03-04T15:40:46.727Z,93.70
2019-03-04T15:43:16.431Z,93.80
2019-03-04T15:45:46.586Z,94.00
2019-03-04T15:48:15.934Z,93.80
2019-03-04T15:50:44.392Z,93.70
2019-03-04T15:53:13.195Z,93.70
2019-03-04T15:55:45.597Z,93.60
2019-03-04T15:58:11.658Z,93.70
2019-03-04T16:00:40.123Z,93.60
2019-03-04T16:03:08.510Z,93.70
2019-03-04T16:05:36.939Z,93.70
2019-03-04T16:08:07.871Z,93.70
2019-03-04T16:10:39.415Z,93.70
2019-03-04T16:13:08.560Z,93.70
2019-03-04T16:15:40.138Z,93.70
2019-03-04T16:18:08.619Z,93.70
2019-03-04T16:20:37.333Z,93.90
2019-03-04T16:23:05.719Z,94.00
2019-03-04T16:25:34.130Z,94.00
2019-03-04T16:28:05.625Z,94.00
2019-03-04T16:30:34.157Z,94.00
2019-03-04T16:33:02.641Z,94.10
2019-03-04T16:35:31.123Z,94.00
2019-03-04T16:37:59.563Z,94.00
2019-03-04T16:40:28.654Z,94.00
2019-03-04T16:42:57.023Z,94.10
2019-03-04T16:45:25.468Z,94.20
2019-03-04T16:47:53.958Z,94.20
2019-03-04T16:50:42.558Z,94.20
2019-03-04T16:53:14.382Z,94.20
2019-03-04T16:55:42.884Z,94.30
2019-03-04T16:58:11.353Z,94.30
2019-03-04T17:00:39.763Z,94.40
2019-03-04T17:03:08.249Z,94.50
2019-03-04T17:05:36.656Z,94.50
2019-03-04T17:08:05.081Z,94.50
2019-03-04T17:10:33.646Z,94.60
2019-03-04T17:13:02.197Z,95.00
2019-03-04T17:15:32.353Z,94.70
2019-03-04T17:18:00.695Z,94.70
2019-03-04T17:20:29.197Z,94.80
2019-03-04T17:22:57.567Z,94.80
2019-03-04T17:25:25.953Z,94.80
2019-03-04T17:27:54.467Z,95.00
2019-03-04T17:30:24.286Z,94.90
2019-03-04T17:32:54.441Z,95.00
2019-03-04T17:35:24.029Z,95.00
2019-03-04T17:37:52.482Z,95.00
2019-03-04T17:40:28.465Z,95.00
2019-03-04T17:42:58.027Z,95.00
2019-03-04T17:45:29.748Z,95.00
2019-03-04T17:47:58.173Z,95.10
2019-03-04T17:50:38.111Z,95.00
2019-03-04T17:53:08.475Z,95.00
2019-03-04T17:55:36.927Z,95.00
2019-03-04T17:58:07.041Z,95.00
2019-03-04T18:00:36.861Z,95.10
2019-03-04T18:03:05.662Z,95.10
2019-03-04T18:05:34.236Z,95.10
2019-03-04T18:08:02.670Z,95.20
2019-03-04T18:10:31.326Z,95.20
2019-03-04T18:13:02.221Z,95.30
2019-03-04T18:15:39.540Z,95.30
2019-03-04T18:18:08.996Z,95.30
2019-03-04T18:20:37.475Z,95.30
2019-03-04T18:23:05.883Z,95.30
2019-03-04T18:25:43.187Z,95.40
2019-03-04T18:28:40.647Z,95.50
2019-03-04T18:31:20.989Z,95.60
2019-03-04T18:34:24.210Z,95.60
2019-03-04T18:36:58.534Z,95.60
2019-03-04T18:39:30.278Z,95.60
2019-03-04T18:42:23.912Z,95.70
2019-03-04T18:45:16.658Z,95.70
2019-03-04T18:48:15.675Z,95.70
2019-03-04T18:50:45.819Z,95.80
2019-03-04T18:53:14.173Z,95.70
2019-03-04T18:55:42.620Z,95.70
2019-03-04T18:58:11.065Z,95.70
2019-03-04T19:00:39.520Z,95.70
2019-03-04T19:03:07.890Z,95.60
2019-03-04T19:05:36.390Z,95.60
2019-03-04T19:08:04.794Z,95.70
2019-03-04T19:10:33.459Z,95.80
2019-03-04T19:13:01.932Z,95.90
2019-03-04T19:15:30.318Z,95.90
2019-03-04T19:17:58.797Z,95.90
2019-03-04T19:20:27.643Z,95.90
2019-03-04T19:22:56.321Z,95.90
2019-03-04T19:25:24.816Z,95.90
2019-03-04T19:27:53.258Z,95.90
2019-03-04T19:30:21.646Z,95.90
2019-03-04T19:32:50.108Z,95.90
2019-03-04T19:35:18.524Z,95.90
2019-03-04T19:37:47.198Z,95.90
2019-03-04T19:40:16.888Z,95.90
2019-03-04T19:42:45.405Z,95.80
2019-03-04T19:45:18.184Z,95.80
2019-03-04T19:47:46.947Z,95.80
2019-03-04T19:50:15.934Z,95.70
2019-03-04T19:52:44.370Z,95.60
2019-03-04T19:55:15.383Z,95.50
2019-03-04T19:57:43.879Z,95.40
2019-03-04T20:00:27.160Z,95.20
2019-03-04T20:02:55.587Z,95.00
2019-03-04T20:05:24.313Z,94.60
2019-03-04T20:07:52.799Z,94.50
2019-03-04T20:10:21.237Z,94.20
2019-03-04T20:12:50.271Z,94.00
2019-03-04T20:15:24.342Z,93.80
2019-03-04T20:17:52.725Z,93.80
2019-03-04T20:20:21.150Z,93.80
2019-03-04T20:22:49.585Z,93.80
2019-03-04T20:25:18.909Z,93.70
2019-03-04T20:27:47.458Z,93.80
2019-03-04T20:30:18.889Z,93.70
2019-03-04T20:32:47.289Z,93.70
2019-03-04T20:35:17.342Z,93.70
2019-03-04T20:38:01.196Z,93.70
2019-03-04T20:40:29.869Z,93.50
2019-03-04T20:42:58.349Z,92.70
2019-03-04T20:45:26.759Z,92.70
2019-03-04T20:47:55.492Z,92.70
2019-03-04T20:50:25.107Z,92.80
2019-03-04T20:52:53.570Z,92.90
2019-03-04T20:55:22.581Z,92.90
2019-03-04T20:57:51.017Z,93.10
2019-03-04T21:00:24.345Z,92.70
2019-03-04T21:02:52.751Z,92.60
2019-03-04T21:05:21.211Z,91.90
2019-03-04T21:07:49.891Z,91.20
2019-03-04T21:10:18.386Z,91.40
2019-03-04T21:12:47.657Z,91.20
2019-03-04T21:15:18.386Z,90.90
2019-03-04T21:17:47.207Z,90.40
2019-03-04T21:20:19.747Z,90.60
2019-03-04T21:22:48.210Z,90.60
2019-03-04T21:25:43.858Z,90.30
2019-03-04T21:28:36.438Z,90.30
2019-03-04T21:31:10.884Z,90.10
2019-03-04T21:34:03.654Z,90.00
2019-03-04T21:37:08.554Z,90.30
2019-03-04T21:39:48.183Z,90.50
2019-03-04T21:42:21.775Z,90.80
2019-03-04T21:45:21.469Z,91.00
2019-03-04T21:47:55.637Z,91.20
2019-03-04T21:50:42.367Z,91.50
2019-03-04T21:53:14.093Z,91.30
2019-03-04T21:55:58.103Z,91.40
2019-03-04T21:58:26.493Z,91.20
2019-03-04T22:00:58.393Z,90.90
2019-03-04T22:03:26.910Z,90.90
2019-03-04T22:05:55.265Z,91.00
2019-03-04T22:08:23.793Z,91.10
2019-03-04T22:10:52.218Z,91.30
2019-03-04T22:13:20.630Z,91.40
2019-03-04T22:15:49.029Z,91.20
2019-03-04T22:18:17.658Z,91.40
2019-03-04T22:20:46.331Z,91.40
2019-03-04T22:23:15.712Z,91.30
2019-03-04T22:25:44.113Z,91.10
2019-03-04T22:28:12.561Z,90.90
2019-03-04T22:30:40.950Z,91.00
2019-03-04T22:33:09.375Z,90.90
2019-03-04T22:35:37.763Z,91.10
2019-03-04T22:38:06.169Z,91.20
2019-03-04T22:40:34.831Z,91.20
2019-03-04T22:43:03.276Z,91.30
2019-03-04T22:45:31.605Z,91.40
2019-03-04T22:48:00.072Z,91.30
2019-03-04T22:50:28.460Z,91.10
2019-03-04T22:52:56.862Z,91.20
2019-03-04T22:55:37.092Z,91.20
2019-03-04T22:58:05.999Z,90.90
2019-03-04T23:00:53.913Z,90.80
2019-03-04T23:03:24.014Z,90.90
2019-03-04T23:05:58.198Z,90.70
2019-03-04T23:08:26.702Z,90.90
2019-03-04T23:10:55.209Z,90.90
2019-03-04T23:13:33.168Z,90.90
2019-03-04T23:16:02.411Z,90.90
2019-03-04T23:18:30.919Z,90.80
2019-03-04T23:20:59.334Z,90.80
2019-03-04T23:23:27.743Z,90.80
2019-03-04T23:25:56.459Z,90.90
2019-03-04T23:28:25.199Z,91.10
2019-03-04T23:30:53.574Z,91.10
2019-03-04T23:33:21.996Z,91.20
2019-03-04T23:35:50.402Z,91.00
2019-03-04T23:38:18.811Z,90.90
2019-03-04T23:40:47.337Z,90.60
2019-03-04T23:43:15.721Z,90.60
2019-03-04T23:45:44.188Z,90.60
2019-03-04T23:48:12.842Z,90.50
2019-03-04T23:50:41.238Z,90.30
2019-03-04T23:53:09.638Z,90.30
2019-03-04T23:55:38.106Z,90.80
2019-03-04T23:58:06.510Z,90.60
